sensor_id;sensor_type;location;lat;lon;timestamp;P1;durP1;ratioP1;P2;durP2;ratioP2
42514;SDS011;28144;49.920;18.730;2022-10-17T00:00:53;24.37;;;15.17;;
42514;SDS011;28144;49.920;18.730;2022-10-17T00:03:30;31.38;;;16.48;;
42514;SDS011;28144;49.920;18.730;2022-10-17T00:05:56;30.17;;;18.90;;
42514;SDS011;28144;49.920;18.730;2022-10-17T00:08:21;30.97;;;21.20;;
42514;SDS011;28144;49.920;18.730;2022-10-17T00:10:55;48.15;;;22.85;;
42514;SDS011;28144;49.920;18.730;2022-10-17T00:13:21;29.83;;;21.58;;
42514;SDS011;28144;49.920;18.730;2022-10-17T00:15:48;35.38;;;19.70;;
42514;SDS011;28144;49.920;18.730;2022-10-17T00:18:13;34.40;;;20.93;;
42514;SDS011;28144;49.920;18.730;2022-10-17T00:20:39;40.10;;;22.50;;
42514;SDS011;28144;49.920;18.730;2022-10-17T00:23:05;40.93;;;19.97;;
42514;SDS011;28144;49.920;18.730;2022-10-17T00:25:30;36.53;;;20.13;;
42514;SDS011;28144;49.920;18.730;2022-10-17T00:27:56;30.73;;;19.63;;
42514;SDS011;28144;49.920;18.730;2022-10-17T00:30:22;37.40;;;20.97;;
42514;SDS011;28144;49.920;18.730;2022-10-17T00:32:47;39.03;;;22.00;;
42514;SDS011;28144;49.920;18.730;2022-10-17T00:35:14;40.03;;;22.20;;
42514;SDS011;28144;49.920;18.730;2022-10-17T00:37:39;49.43;;;27.13;;
42514;SDS011;28144;49.920;18.730;2022-10-17T00:40:05;48.75;;;23.10;;
42514;SDS011;28144;49.920;18.730;2022-10-17T00:42:31;54.33;;;27.88;;
42514;SDS011;28144;49.920;18.730;2022-10-17T00:45:43;39.17;;;22.40;;
42514;SDS011;28144;49.920;18.730;2022-10-17T00:47:47;32.63;;;20.80;;
42514;SDS011;28144;49.920;18.730;2022-10-17T00:50:15;28.42;;;19.83;;
42514;SDS011;28144;49.920;18.730;2022-10-17T00:55:09;40.10;;;21.50;;
42514;SDS011;28144;49.920;18.730;2022-10-17T00:57:36;36.63;;;20.90;;
42514;SDS011;28144;49.920;18.730;2022-10-17T01:00:04;32.13;;;19.60;;
42514;SDS011;28144;49.920;18.730;2022-10-17T01:02:32;38.40;;;23.75;;
42514;SDS011;28144;49.920;18.730;2022-10-17T01:04:58;53.07;;;27.37;;
42514;SDS011;28144;49.920;18.730;2022-10-17T01:07:24;49.73;;;30.20;;
42514;SDS011;28144;49.920;18.730;2022-10-17T01:09:51;52.28;;;26.95;;
42514;SDS011;28144;49.920;18.730;2022-10-17T01:15:28;54.30;;;31.75;;
42514;SDS011;28144;49.920;18.730;2022-10-17T01:29:04;34.78;;;23.35;;
42514;SDS011;28144;49.920;18.730;2022-10-17T01:31:54;38.13;;;24.23;;
42514;SDS011;28144;49.920;18.730;2022-10-17T01:43:29;44.13;;;25.50;;
42514;SDS011;28144;49.920;18.730;2022-10-17T01:45:58;36.63;;;21.25;;
42514;SDS011;28144;49.920;18.730;2022-10-17T01:48:34;39.05;;;23.80;;
42514;SDS011;28144;49.920;18.730;2022-10-17T01:51:35;43.53;;;23.25;;
42514;SDS011;28144;49.920;18.730;2022-10-17T01:54:06;46.50;;;24.75;;
42514;SDS011;28144;49.920;18.730;2022-10-17T01:56:35;50.42;;;28.75;;
42514;SDS011;28144;49.920;18.730;2022-10-17T01:59:09;48.13;;;28.17;;
42514;SDS011;28144;49.920;18.730;2022-10-17T02:01:38;51.20;;;28.98;;
42514;SDS011;28144;49.920;18.730;2022-10-17T02:04:05;46.72;;;26.02;;
42514;SDS011;28144;49.920;18.730;2022-10-17T02:06:33;40.17;;;25.73;;
42514;SDS011;28144;49.920;18.730;2022-10-17T02:09:00;48.05;;;29.05;;
42514;SDS011;28144;49.920;18.730;2022-10-17T02:11:26;62.00;;;37.67;;
42514;SDS011;28144;49.920;18.730;2022-10-17T02:27:16;56.08;;;32.22;;
42514;SDS011;28144;49.920;18.730;2022-10-17T02:29:56;51.03;;;27.80;;
42514;SDS011;28144;49.920;18.730;2022-10-17T02:32:39;45.50;;;27.98;;
42514;SDS011;28144;49.920;18.730;2022-10-17T02:35:12;52.07;;;27.90;;
42514;SDS011;28144;49.920;18.730;2022-10-17T02:37:40;48.80;;;26.58;;
42514;SDS011;28144;49.920;18.730;2022-10-17T02:40:06;43.80;;;26.05;;
42514;SDS011;28144;49.920;18.730;2022-10-17T02:42:33;43.92;;;27.48;;
42514;SDS011;28144;49.920;18.730;2022-10-17T02:44:59;54.13;;;24.80;;
42514;SDS011;28144;49.920;18.730;2022-10-17T02:47:34;42.22;;;25.58;;
42514;SDS011;28144;49.920;18.730;2022-10-17T02:50:02;44.78;;;27.10;;
42514;SDS011;28144;49.920;18.730;2022-10-17T02:55:16;47.13;;;28.47;;
42514;SDS011;28144;49.920;18.730;2022-10-17T02:57:51;45.23;;;27.97;;
42514;SDS011;28144;49.920;18.730;2022-10-17T03:00:19;48.30;;;28.63;;
42514;SDS011;28144;49.920;18.730;2022-10-17T03:05:13;48.80;;;26.57;;
42514;SDS011;28144;49.920;18.730;2022-10-17T03:07:49;49.47;;;29.50;;
42514;SDS011;28144;49.920;18.730;2022-10-17T03:10:15;45.55;;;29.77;;
42514;SDS011;28144;49.920;18.730;2022-10-17T03:12:41;50.40;;;33.72;;
42514;SDS011;28144;49.920;18.730;2022-10-17T03:15:08;54.33;;;33.80;;
42514;SDS011;28144;49.920;18.730;2022-10-17T03:17:34;49.95;;;30.58;;
42514;SDS011;28144;49.920;18.730;2022-10-17T03:20:00;43.88;;;26.65;;
42514;SDS011;28144;49.920;18.730;2022-10-17T03:22:26;43.17;;;25.03;;
42514;SDS011;28144;49.920;18.730;2022-10-17T03:24:52;38.80;;;24.50;;
42514;SDS011;28144;49.920;18.730;2022-10-17T03:27:17;43.33;;;24.87;;
42514;SDS011;28144;49.920;18.730;2022-10-17T03:29:43;46.60;;;24.27;;
42514;SDS011;28144;49.920;18.730;2022-10-17T03:32:09;50.63;;;23.63;;
42514;SDS011;28144;49.920;18.730;2022-10-17T03:34:35;45.37;;;26.00;;
42514;SDS011;28144;49.920;18.730;2022-10-17T03:37:00;39.80;;;25.00;;
42514;SDS011;28144;49.920;18.730;2022-10-17T03:39:26;42.77;;;22.50;;
42514;SDS011;28144;49.920;18.730;2022-10-17T03:41:52;39.93;;;23.37;;
42514;SDS011;28144;49.920;18.730;2022-10-17T03:44:17;41.17;;;25.63;;
42514;SDS011;28144;49.920;18.730;2022-10-17T03:46:43;40.30;;;25.20;;
42514;SDS011;28144;49.920;18.730;2022-10-17T03:49:09;50.80;;;24.43;;
42514;SDS011;28144;49.920;18.730;2022-10-17T03:51:34;40.20;;;24.60;;
42514;SDS011;28144;49.920;18.730;2022-10-17T03:54:01;42.50;;;24.20;;
42514;SDS011;28144;49.920;18.730;2022-10-17T03:56:26;39.27;;;25.40;;
42514;SDS011;28144;49.920;18.730;2022-10-17T03:58:53;40.73;;;24.13;;
42514;SDS011;28144;49.920;18.730;2022-10-17T04:01:19;44.22;;;26.33;;
42514;SDS011;28144;49.920;18.730;2022-10-17T04:03:49;50.00;;;30.05;;
42514;SDS011;28144;49.920;18.730;2022-10-17T04:06:17;47.47;;;26.03;;
42514;SDS011;28144;49.920;18.730;2022-10-17T04:08:43;42.05;;;26.50;;
42514;SDS011;28144;49.920;18.730;2022-10-17T04:11:09;43.10;;;25.50;;
42514;SDS011;28144;49.920;18.730;2022-10-17T04:13:39;43.97;;;24.67;;
42514;SDS011;28144;49.920;18.730;2022-10-17T04:16:05;43.73;;;24.13;;
42514;SDS011;28144;49.920;18.730;2022-10-17T04:18:33;48.13;;;26.37;;
42514;SDS011;28144;49.920;18.730;2022-10-17T04:21:02;53.00;;;27.80;;
42514;SDS011;28144;49.920;18.730;2022-10-17T04:23:28;46.80;;;25.43;;
42514;SDS011;28144;49.920;18.730;2022-10-17T04:25:55;37.53;;;23.30;;
42514;SDS011;28144;49.920;18.730;2022-10-17T04:28:21;52.10;;;30.20;;
42514;SDS011;28144;49.920;18.730;2022-10-17T04:30:54;42.70;;;28.05;;
42514;SDS011;28144;49.920;18.730;2022-10-17T04:33:23;48.27;;;25.03;;
42514;SDS011;28144;49.920;18.730;2022-10-17T04:36:02;47.20;;;26.90;;
42514;SDS011;28144;49.920;18.730;2022-10-17T04:38:37;49.60;;;27.13;;
42514;SDS011;28144;49.920;18.730;2022-10-17T04:41:05;45.47;;;28.07;;
42514;SDS011;28144;49.920;18.730;2022-10-17T04:43:33;46.50;;;28.33;;
42514;SDS011;28144;49.920;18.730;2022-10-17T04:46:02;50.63;;;28.93;;
42514;SDS011;28144;49.920;18.730;2022-10-17T04:48:29;53.63;;;30.30;;
42514;SDS011;28144;49.920;18.730;2022-10-17T04:50:55;45.33;;;29.63;;
42514;SDS011;28144;49.920;18.730;2022-10-17T04:53:22;49.97;;;29.93;;
42514;SDS011;28144;49.920;18.730;2022-10-17T04:55:48;42.53;;;27.65;;
42514;SDS011;28144;49.920;18.730;2022-10-17T04:58:14;52.17;;;30.10;;
42514;SDS011;28144;49.920;18.730;2022-10-17T05:00:41;47.00;;;26.73;;
42514;SDS011;28144;49.920;18.730;2022-10-17T05:03:06;37.87;;;21.23;;
42514;SDS011;28144;49.920;18.730;2022-10-17T05:05:32;34.37;;;20.93;;
42514;SDS011;28144;49.920;18.730;2022-10-17T05:07:58;35.33;;;18.60;;
42514;SDS011;28144;49.920;18.730;2022-10-17T05:10:23;36.30;;;21.00;;
42514;SDS011;28144;49.920;18.730;2022-10-17T05:12:49;46.33;;;30.73;;
42514;SDS011;28144;49.920;18.730;2022-10-17T05:15:15;57.72;;;30.30;;
42514;SDS011;28144;49.920;18.730;2022-10-17T05:17:41;50.60;;;27.67;;
42514;SDS011;28144;49.920;18.730;2022-10-17T05:20:08;50.05;;;29.25;;
42514;SDS011;28144;49.920;18.730;2022-10-17T05:22:34;43.73;;;26.33;;
42514;SDS011;28144;49.920;18.730;2022-10-17T05:25:00;44.10;;;23.97;;
42514;SDS011;28144;49.920;18.730;2022-10-17T05:27:26;44.17;;;23.23;;
42514;SDS011;28144;49.920;18.730;2022-10-17T05:29:51;55.10;;;30.90;;
42514;SDS011;28144;49.920;18.730;2022-10-17T05:32:17;47.67;;;24.73;;
42514;SDS011;28144;49.920;18.730;2022-10-17T05:34:42;63.20;;;30.27;;
42514;SDS011;28144;49.920;18.730;2022-10-17T05:37:08;81.27;;;38.13;;
42514;SDS011;28144;49.920;18.730;2022-10-17T05:39:34;90.53;;;41.27;;
42514;SDS011;28144;49.920;18.730;2022-10-17T05:42:00;60.10;;;33.50;;
42514;SDS011;28144;49.920;18.730;2022-10-17T05:44:25;68.20;;;36.70;;
42514;SDS011;28144;49.920;18.730;2022-10-17T05:46:51;76.40;;;39.93;;
42514;SDS011;28144;49.920;18.730;2022-10-17T05:49:16;72.47;;;43.27;;
42514;SDS011;28144;49.920;18.730;2022-10-17T05:51:42;81.00;;;46.77;;
42514;SDS011;28144;49.920;18.730;2022-10-17T05:54:08;77.60;;;43.17;;
42514;SDS011;28144;49.920;18.730;2022-10-17T05:56:34;42.33;;;24.57;;
42514;SDS011;28144;49.920;18.730;2022-10-17T05:59:00;53.67;;;29.50;;
42514;SDS011;28144;49.920;18.730;2022-10-17T06:01:26;46.60;;;27.23;;
42514;SDS011;28144;49.920;18.730;2022-10-17T06:03:51;54.33;;;31.47;;
42514;SDS011;28144;49.920;18.730;2022-10-17T06:06:17;57.23;;;33.73;;
42514;SDS011;28144;49.920;18.730;2022-10-17T06:08:43;60.00;;;37.77;;
42514;SDS011;28144;49.920;18.730;2022-10-17T06:11:10;53.95;;;33.90;;
42514;SDS011;28144;49.920;18.730;2022-10-17T06:13:37;71.73;;;42.03;;
42514;SDS011;28144;49.920;18.730;2022-10-17T06:18:30;53.08;;;30.88;;
42514;SDS011;28144;49.920;18.730;2022-10-17T06:21:06;48.77;;;31.47;;
42514;SDS011;28144;49.920;18.730;2022-10-17T06:23:36;61.63;;;33.55;;
42514;SDS011;28144;49.920;18.730;2022-10-17T06:26:05;57.75;;;31.10;;
42514;SDS011;28144;49.920;18.730;2022-10-17T06:32:12;56.67;;;33.17;;
42514;SDS011;28144;49.920;18.730;2022-10-17T06:37:04;78.47;;;41.77;;
42514;SDS011;28144;49.920;18.730;2022-10-17T06:39:30;79.43;;;43.42;;
42514;SDS011;28144;49.920;18.730;2022-10-17T06:41:58;82.03;;;46.17;;
42514;SDS011;28144;49.920;18.730;2022-10-17T06:44:27;77.95;;;45.75;;
42514;SDS011;28144;49.920;18.730;2022-10-17T06:46:59;72.82;;;42.95;;
42514;SDS011;28144;49.920;18.730;2022-10-17T06:49:25;79.00;;;42.33;;
42514;SDS011;28144;49.920;18.730;2022-10-17T06:51:51;62.42;;;38.05;;
42514;SDS011;28144;49.920;18.730;2022-10-17T06:54:18;62.78;;;38.80;;
42514;SDS011;28144;49.920;18.730;2022-10-17T06:56:43;56.33;;;35.30;;
42514;SDS011;28144;49.920;18.730;2022-10-17T07:02:50;52.00;;;31.90;;
42514;SDS011;28144;49.920;18.730;2022-10-17T07:08:57;48.85;;;31.73;;
42514;SDS011;28144;49.920;18.730;2022-10-17T07:11:23;47.28;;;30.50;;
42514;SDS011;28144;49.920;18.730;2022-10-17T07:13:50;48.30;;;29.90;;
42514;SDS011;28144;49.920;18.730;2022-10-17T07:16:15;53.87;;;31.77;;
42514;SDS011;28144;49.920;18.730;2022-10-17T07:18:41;48.43;;;30.73;;
42514;SDS011;28144;49.920;18.730;2022-10-17T07:21:08;46.92;;;29.05;;
42514;SDS011;28144;49.920;18.730;2022-10-17T07:23:34;42.28;;;26.77;;
42514;SDS011;28144;49.920;18.730;2022-10-17T07:26:05;44.22;;;27.20;;
42514;SDS011;28144;49.920;18.730;2022-10-17T07:28:33;48.72;;;29.50;;
42514;SDS011;28144;49.920;18.730;2022-10-17T07:31:06;40.85;;;26.55;;
42514;SDS011;28144;49.920;18.730;2022-10-17T07:33:33;52.10;;;26.80;;
42514;SDS011;28144;49.920;18.730;2022-10-17T07:35:59;56.80;;;25.37;;
42514;SDS011;28144;49.920;18.730;2022-10-17T07:38:26;50.25;;;28.42;;
42514;SDS011;28144;49.920;18.730;2022-10-17T07:40:55;50.10;;;26.52;;
42514;SDS011;28144;49.920;18.730;2022-10-17T07:43:22;42.83;;;26.27;;
42514;SDS011;28144;49.920;18.730;2022-10-17T07:45:49;35.78;;;21.38;;
42514;SDS011;28144;49.920;18.730;2022-10-17T07:48:15;34.08;;;21.38;;
42514;SDS011;28144;49.920;18.730;2022-10-17T07:50:41;42.55;;;22.08;;
42514;SDS011;28144;49.920;18.730;2022-10-17T07:53:07;39.58;;;20.00;;
42514;SDS011;28144;49.920;18.730;2022-10-17T07:55:33;27.90;;;18.48;;
42514;SDS011;28144;49.920;18.730;2022-10-17T07:57:58;24.60;;;18.10;;
42514;SDS011;28144;49.920;18.730;2022-10-17T08:00:27;22.95;;;15.82;;
42514;SDS011;28144;49.920;18.730;2022-10-17T08:02:53;28.80;;;16.07;;
42514;SDS011;28144;49.920;18.730;2022-10-17T08:05:19;26.73;;;16.38;;
42514;SDS011;28144;49.920;18.730;2022-10-17T08:07:44;30.57;;;16.23;;
42514;SDS011;28144;49.920;18.730;2022-10-17T08:10:11;31.63;;;16.15;;
42514;SDS011;28144;49.920;18.730;2022-10-17T08:12:37;24.23;;;15.63;;
42514;SDS011;28144;49.920;18.730;2022-10-17T08:15:04;39.45;;;25.00;;
42514;SDS011;28144;49.920;18.730;2022-10-17T08:17:30;24.95;;;16.92;;
42514;SDS011;28144;49.920;18.730;2022-10-17T08:19:59;29.75;;;17.40;;
42514;SDS011;28144;49.920;18.730;2022-10-17T08:22:24;21.30;;;14.10;;
42514;SDS011;28144;49.920;18.730;2022-10-17T08:24:50;21.75;;;13.25;;
42514;SDS011;28144;49.920;18.730;2022-10-17T08:27:16;25.13;;;13.67;;
42514;SDS011;28144;49.920;18.730;2022-10-17T08:29:48;27.45;;;12.40;;
42514;SDS011;28144;49.920;18.730;2022-10-17T08:32:17;21.55;;;11.85;;
42514;SDS011;28144;49.920;18.730;2022-10-17T08:34:44;24.90;;;11.48;;
42514;SDS011;28144;49.920;18.730;2022-10-17T08:37:10;19.20;;;10.87;;
42514;SDS011;28144;49.920;18.730;2022-10-17T08:39:38;20.50;;;11.52;;
42514;SDS011;28144;49.920;18.730;2022-10-17T08:44:38;19.75;;;10.68;;
42514;SDS011;28144;49.920;18.730;2022-10-17T08:47:26;21.45;;;10.88;;
42514;SDS011;28144;49.920;18.730;2022-10-17T08:50:04;20.98;;;10.93;;
42514;SDS011;28144;49.920;18.730;2022-10-17T08:52:39;16.42;;;10.52;;
42514;SDS011;28144;49.920;18.730;2022-10-17T08:55:26;17.25;;;10.80;;
42514;SDS011;28144;49.920;18.730;2022-10-17T08:57:54;22.17;;;10.90;;
42514;SDS011;28144;49.920;18.730;2022-10-17T09:00:20;17.92;;;11.10;;
42514;SDS011;28144;49.920;18.730;2022-10-17T09:05:33;21.88;;;12.40;;
42514;SDS011;28144;49.920;18.730;2022-10-17T09:17:22;15.73;;;9.27;;
42514;SDS011;28144;49.920;18.730;2022-10-17T09:20:10;15.30;;;9.17;;
42514;SDS011;28144;49.920;18.730;2022-10-17T09:22:41;16.77;;;9.75;;
42514;SDS011;28144;49.920;18.730;2022-10-17T09:25:11;17.58;;;8.85;;
42514;SDS011;28144;49.920;18.730;2022-10-17T09:32:59;13.18;;;8.80;;
42514;SDS011;28144;49.920;18.730;2022-10-17T09:35:26;24.10;;;8.60;;
42514;SDS011;28144;49.920;18.730;2022-10-17T09:37:52;20.48;;;9.10;;
42514;SDS011;28144;49.920;18.730;2022-10-17T09:40:21;19.45;;;9.48;;
42514;SDS011;28144;49.920;18.730;2022-10-17T09:42:49;47.53;;;26.40;;
42514;SDS011;28144;49.920;18.730;2022-10-17T09:45:19;16.08;;;8.43;;
42514;SDS011;28144;49.920;18.730;2022-10-17T09:52:51;20.60;;;10.60;;
42514;SDS011;28144;49.920;18.730;2022-10-17T09:55:26;16.30;;;7.97;;
42514;SDS011;28144;49.920;18.730;2022-10-17T09:58:01;17.58;;;8.88;;
42514;SDS011;28144;49.920;18.730;2022-10-17T10:00:33;16.13;;;7.20;;
42514;SDS011;28144;49.920;18.730;2022-10-17T10:08:52;10.75;;;5.90;;
42514;SDS011;28144;49.920;18.730;2022-10-17T10:16:48;10.48;;;6.32;;
42514;SDS011;28144;49.920;18.730;2022-10-17T10:19:27;10.85;;;5.68;;
42514;SDS011;28144;49.920;18.730;2022-10-17T10:22:37;9.77;;;5.07;;
42514;SDS011;28144;49.920;18.730;2022-10-17T10:24:44;8.77;;;5.05;;
42514;SDS011;28144;49.920;18.730;2022-10-17T10:27:16;7.55;;;4.90;;
42514;SDS011;28144;49.920;18.730;2022-10-17T10:29:47;33.33;;;21.30;;
42514;SDS011;28144;49.920;18.730;2022-10-17T10:32:18;27.40;;;12.45;;
42514;SDS011;28144;49.920;18.730;2022-10-17T10:39:54;11.00;;;5.28;;
42514;SDS011;28144;49.920;18.730;2022-10-17T10:42:34;8.55;;;5.85;;
42514;SDS011;28144;49.920;18.730;2022-10-17T10:45:47;8.30;;;4.70;;
42514;SDS011;28144;49.920;18.730;2022-10-17T10:48:19;10.02;;;6.78;;
42514;SDS011;28144;49.920;18.730;2022-10-17T11:06:43;8.90;;;5.38;;
42514;SDS011;28144;49.920;18.730;2022-10-17T11:11:48;19.85;;;9.38;;
42514;SDS011;28144;49.920;18.730;2022-10-17T11:22:47;12.88;;;6.93;;
42514;SDS011;28144;49.920;18.730;2022-10-17T11:27:59;8.43;;;4.35;;
42514;SDS011;28144;49.920;18.730;2022-10-17T11:30:26;9.50;;;4.55;;
42514;SDS011;28144;49.920;18.730;2022-10-17T11:33:03;12.25;;;4.63;;
42514;SDS011;28144;49.920;18.730;2022-10-17T11:35:34;11.40;;;4.57;;
42514;SDS011;28144;49.920;18.730;2022-10-17T11:41:00;7.65;;;5.00;;
42514;SDS011;28144;49.920;18.730;2022-10-17T11:45:58;14.15;;;8.50;;
42514;SDS011;28144;49.920;18.730;2022-10-17T11:48:34;13.48;;;6.65;;
42514;SDS011;28144;49.920;18.730;2022-10-17T11:51:07;10.55;;;6.13;;
42514;SDS011;28144;49.920;18.730;2022-10-17T11:53:43;8.52;;;5.25;;
42514;SDS011;28144;49.920;18.730;2022-10-17T11:56:43;11.40;;;6.43;;
42514;SDS011;28144;49.920;18.730;2022-10-17T11:59:39;7.75;;;5.03;;
42514;SDS011;28144;49.920;18.730;2022-10-17T12:02:34;13.48;;;5.75;;
42514;SDS011;28144;49.920;18.730;2022-10-17T12:12:41;7.30;;;4.15;;
42514;SDS011;28144;49.920;18.730;2022-10-17T12:17:36;6.88;;;4.65;;
42514;SDS011;28144;49.920;18.730;2022-10-17T12:20:47;15.43;;;8.15;;
42514;SDS011;28144;49.920;18.730;2022-10-17T12:22:56;15.52;;;7.10;;
42514;SDS011;28144;49.920;18.730;2022-10-17T12:25:26;12.13;;;6.80;;
42514;SDS011;28144;49.920;18.730;2022-10-17T12:30:29;9.15;;;4.40;;
42514;SDS011;28144;49.920;18.730;2022-10-17T12:32:56;6.45;;;4.55;;
42514;SDS011;28144;49.920;18.730;2022-10-17T12:35:23;8.88;;;5.05;;
42514;SDS011;28144;49.920;18.730;2022-10-17T12:43:46;7.13;;;4.10;;
42514;SDS011;28144;49.920;18.730;2022-10-17T12:50:59;11.98;;;6.65;;
42514;SDS011;28144;49.920;18.730;2022-10-17T12:56:38;7.15;;;4.10;;
42514;SDS011;28144;49.920;18.730;2022-10-17T13:01:42;8.32;;;4.50;;
42514;SDS011;28144;49.920;18.730;2022-10-17T13:04:10;7.05;;;4.25;;
42514;SDS011;28144;49.920;18.730;2022-10-17T13:06:44;73.50;;;46.47;;
42514;SDS011;28144;49.920;18.730;2022-10-17T13:09:19;10.82;;;5.35;;
42514;SDS011;28144;49.920;18.730;2022-10-17T13:11:46;6.72;;;4.32;;
42514;SDS011;28144;49.920;18.730;2022-10-17T13:14:13;39.25;;;21.58;;
42514;SDS011;28144;49.920;18.730;2022-10-17T13:16:49;17.55;;;8.60;;
42514;SDS011;28144;49.920;18.730;2022-10-17T13:19:24;5.50;;;3.90;;
42514;SDS011;28144;49.920;18.730;2022-10-17T13:21:55;7.95;;;4.32;;
42514;SDS011;28144;49.920;18.730;2022-10-17T13:24:31;9.18;;;4.07;;
42514;SDS011;28144;49.920;18.730;2022-10-17T13:26:57;12.80;;;5.25;;
42514;SDS011;28144;49.920;18.730;2022-10-17T13:29:24;16.77;;;10.10;;
42514;SDS011;28144;49.920;18.730;2022-10-17T13:31:57;8.73;;;4.05;;
42514;SDS011;28144;49.920;18.730;2022-10-17T13:34:26;8.57;;;4.57;;
42514;SDS011;28144;49.920;18.730;2022-10-17T13:36:56;11.63;;;4.78;;
42514;SDS011;28144;49.920;18.730;2022-10-17T13:39:24;14.43;;;6.55;;
42514;SDS011;28144;49.920;18.730;2022-10-17T13:41:52;9.10;;;4.28;;
42514;SDS011;28144;49.920;18.730;2022-10-17T13:44:19;13.25;;;6.40;;
42514;SDS011;28144;49.920;18.730;2022-10-17T13:46:46;22.27;;;11.13;;
42514;SDS011;28144;49.920;18.730;2022-10-17T13:51:41;10.25;;;3.97;;
42514;SDS011;28144;49.920;18.730;2022-10-17T13:54:16;26.08;;;13.15;;
42514;SDS011;28144;49.920;18.730;2022-10-17T13:57:03;11.02;;;5.38;;
42514;SDS011;28144;49.920;18.730;2022-10-17T13:59:36;8.88;;;4.20;;
42514;SDS011;28144;49.920;18.730;2022-10-17T14:02:03;9.77;;;3.97;;
42514;SDS011;28144;49.920;18.730;2022-10-17T14:04:37;11.82;;;5.07;;
42514;SDS011;28144;49.920;18.730;2022-10-17T14:07:03;9.38;;;4.53;;
42514;SDS011;28144;49.920;18.730;2022-10-17T14:09:30;8.23;;;4.32;;
42514;SDS011;28144;49.920;18.730;2022-10-17T14:12:01;5.28;;;3.67;;
42514;SDS011;28144;49.920;18.730;2022-10-17T14:14:45;4.90;;;3.42;;
42514;SDS011;28144;49.920;18.730;2022-10-17T14:17:13;5.38;;;3.47;;
42514;SDS011;28144;49.920;18.730;2022-10-17T14:19:40;5.03;;;3.13;;
42514;SDS011;28144;49.920;18.730;2022-10-17T14:24:47;6.75;;;3.13;;
42514;SDS011;28144;49.920;18.730;2022-10-17T14:27:34;5.50;;;3.40;;
42514;SDS011;28144;49.920;18.730;2022-10-17T14:30:06;6.38;;;3.22;;
42514;SDS011;28144;49.920;18.730;2022-10-17T14:32:54;22.83;;;11.75;;
42514;SDS011;28144;49.920;18.730;2022-10-17T14:35:22;11.75;;;6.35;;
42514;SDS011;28144;49.920;18.730;2022-10-17T14:37:49;14.45;;;6.80;;
42514;SDS011;28144;49.920;18.730;2022-10-17T14:40:20;11.40;;;5.70;;
42514;SDS011;28144;49.920;18.730;2022-10-17T14:42:50;9.13;;;4.70;;
42514;SDS011;28144;49.920;18.730;2022-10-17T14:47:58;14.43;;;6.47;;
42514;SDS011;28144;49.920;18.730;2022-10-17T14:50:27;10.73;;;5.65;;
42514;SDS011;28144;49.920;18.730;2022-10-17T14:55:27;9.88;;;5.07;;
42514;SDS011;28144;49.920;18.730;2022-10-17T14:57:54;14.80;;;7.65;;
42514;SDS011;28144;49.920;18.730;2022-10-17T15:00:20;9.63;;;5.43;;
42514;SDS011;28144;49.920;18.730;2022-10-17T15:02:47;13.57;;;7.35;;
42514;SDS011;28144;49.920;18.730;2022-10-17T15:05:14;10.02;;;5.10;;
42514;SDS011;28144;49.920;18.730;2022-10-17T15:07:47;6.25;;;4.30;;
42514;SDS011;28144;49.920;18.730;2022-10-17T15:12:58;14.65;;;6.95;;
42514;SDS011;28144;49.920;18.730;2022-10-17T15:15:28;14.57;;;6.35;;
42514;SDS011;28144;49.920;18.730;2022-10-17T15:18:00;43.53;;;16.42;;
42514;SDS011;28144;49.920;18.730;2022-10-17T15:20:27;17.02;;;7.10;;
42514;SDS011;28144;49.920;18.730;2022-10-17T15:22:55;26.30;;;10.93;;
42514;SDS011;28144;49.920;18.730;2022-10-17T15:25:22;39.30;;;17.17;;
42514;SDS011;28144;49.920;18.730;2022-10-17T15:27:48;25.10;;;12.07;;
42514;SDS011;28144;49.920;18.730;2022-10-17T15:32:47;23.50;;;10.40;;
42514;SDS011;28144;49.920;18.730;2022-10-17T15:35:13;19.52;;;8.75;;
42514;SDS011;28144;49.920;18.730;2022-10-17T15:37:39;23.17;;;8.90;;
42514;SDS011;28144;49.920;18.730;2022-10-17T15:40:15;24.17;;;10.95;;
42514;SDS011;28144;49.920;18.730;2022-10-17T15:42:42;15.98;;;7.57;;
42514;SDS011;28144;49.920;18.730;2022-10-17T15:45:12;15.82;;;7.97;;
42514;SDS011;28144;49.920;18.730;2022-10-17T15:47:42;20.08;;;8.77;;
42514;SDS011;28144;49.920;18.730;2022-10-17T15:50:10;19.65;;;9.98;;
42514;SDS011;28144;49.920;18.730;2022-10-17T15:52:38;23.10;;;10.50;;
42514;SDS011;28144;49.920;18.730;2022-10-17T15:55:06;22.80;;;10.55;;
42514;SDS011;28144;49.920;18.730;2022-10-17T15:57:33;32.22;;;14.55;;
42514;SDS011;28144;49.920;18.730;2022-10-17T16:00:03;22.20;;;10.63;;
42514;SDS011;28144;49.920;18.730;2022-10-17T16:02:30;17.25;;;9.15;;
42514;SDS011;28144;49.920;18.730;2022-10-17T16:04:57;22.75;;;10.20;;
42514;SDS011;28144;49.920;18.730;2022-10-17T16:07:23;22.15;;;9.05;;
42514;SDS011;28144;49.920;18.730;2022-10-17T16:09:49;28.80;;;9.82;;
42514;SDS011;28144;49.920;18.730;2022-10-17T16:12:17;13.07;;;7.93;;
42514;SDS011;28144;49.920;18.730;2022-10-17T16:14:45;15.32;;;8.57;;
42514;SDS011;28144;49.920;18.730;2022-10-17T16:17:12;11.13;;;6.93;;
42514;SDS011;28144;49.920;18.730;2022-10-17T16:19:38;13.00;;;7.63;;
42514;SDS011;28144;49.920;18.730;2022-10-17T16:22:04;9.73;;;6.83;;
42514;SDS011;28144;49.920;18.730;2022-10-17T16:26:56;18.33;;;7.47;;
42514;SDS011;28144;49.920;18.730;2022-10-17T16:29:22;11.57;;;6.77;;
42514;SDS011;28144;49.920;18.730;2022-10-17T16:31:47;18.03;;;7.90;;
42514;SDS011;28144;49.920;18.730;2022-10-17T16:34:13;31.30;;;16.35;;
42514;SDS011;28144;49.920;18.730;2022-10-17T16:36:40;27.33;;;13.75;;
42514;SDS011;28144;49.920;18.730;2022-10-17T16:39:06;15.57;;;9.02;;
42514;SDS011;28144;49.920;18.730;2022-10-17T16:41:33;12.43;;;7.65;;
42514;SDS011;28144;49.920;18.730;2022-10-17T16:44:01;25.33;;;12.68;;
42514;SDS011;28144;49.920;18.730;2022-10-17T16:46:29;21.02;;;9.57;;
42514;SDS011;28144;49.920;18.730;2022-10-17T16:48:55;17.13;;;7.40;;
42514;SDS011;28144;49.920;18.730;2022-10-17T16:51:21;17.40;;;7.55;;
42514;SDS011;28144;49.920;18.730;2022-10-17T16:53:48;23.90;;;13.25;;
42514;SDS011;28144;49.920;18.730;2022-10-17T16:56:18;19.27;;;10.48;;
42514;SDS011;28144;49.920;18.730;2022-10-17T16:58:46;17.95;;;6.80;;
42514;SDS011;28144;49.920;18.730;2022-10-17T17:01:13;20.38;;;11.70;;
42514;SDS011;28144;49.920;18.730;2022-10-17T17:03:43;12.77;;;7.38;;
42514;SDS011;28144;49.920;18.730;2022-10-17T17:06:17;9.30;;;6.10;;
42514;SDS011;28144;49.920;18.730;2022-10-17T17:08:45;13.43;;;7.63;;
42514;SDS011;28144;49.920;18.730;2022-10-17T17:11:11;15.30;;;8.67;;
42514;SDS011;28144;49.920;18.730;2022-10-17T17:13:39;20.05;;;6.50;;
42514;SDS011;28144;49.920;18.730;2022-10-17T17:16:16;9.88;;;6.43;;
42514;SDS011;28144;49.920;18.730;2022-10-17T17:18:43;12.02;;;5.28;;
42514;SDS011;28144;49.920;18.730;2022-10-17T17:21:10;14.80;;;7.00;;
42514;SDS011;28144;49.920;18.730;2022-10-17T17:28:30;13.98;;;6.43;;
42514;SDS011;28144;49.920;18.730;2022-10-17T17:30:55;33.83;;;21.02;;
42514;SDS011;28144;49.920;18.730;2022-10-17T17:33:21;39.93;;;19.70;;
42514;SDS011;28144;49.920;18.730;2022-10-17T17:35:52;14.10;;;7.63;;